sensor_id;sensor_type;location;lat;lon;timestamp;P1;durP1;ratioP1;P2;durP2;ratioP2
46941;SDS011;32676;52.630;4.896;2023-02-28T00:00:06;8.70;;;3.35;;
46941;SDS011;32676;52.630;4.896;2023-02-28T00:02:35;8.77;;;2.83;;
46941;SDS011;32676;52.630;4.896;2023-02-28T00:05:02;7.38;;;2.67;;
46941;SDS011;32676;52.630;4.896;2023-02-28T00:07:29;12.73;;;2.35;;
46941;SDS011;32676;52.630;4.896;2023-02-28T00:09:56;4.38;;;2.05;;
46941;SDS011;32676;52.630;4.896;2023-02-28T00:12:24;9.30;;;2.15;;
46941;SDS011;32676;52.630;4.896;2023-02-28T00:14:51;16.73;;;2.60;;
46941;SDS011;32676;52.630;4.896;2023-02-28T00:17:17;6.70;;;1.48;;
46941;SDS011;32676;52.630;4.896;2023-02-28T00:19:46;5.95;;;1.98;;
46941;SDS011;32676;52.630;4.896;2023-02-28T00:22:12;15.98;;;2.03;;
46941;SDS011;32676;52.630;4.896;2023-02-28T00:24:39;8.32;;;2.10;;
46941;SDS011;32676;52.630;4.896;2023-02-28T00:27:05;13.02;;;1.73;;
46941;SDS011;32676;52.630;4.896;2023-02-28T00:29:33;12.60;;;3.25;;
46941;SDS011;32676;52.630;4.896;2023-02-28T00:32:00;11.25;;;2.03;;
46941;SDS011;32676;52.630;4.896;2023-02-28T00:34:26;9.98;;;2.72;;
46941;SDS011;32676;52.630;4.896;2023-02-28T00:36:53;31.00;;;5.28;;
46941;SDS011;32676;52.630;4.896;2023-02-28T00:39:20;4.53;;;1.70;;
46941;SDS011;32676;52.630;4.896;2023-02-28T00:41:46;10.90;;;1.75;;
46941;SDS011;32676;52.630;4.896;2023-02-28T00:44:13;9.30;;;2.00;;
46941;SDS011;32676;52.630;4.896;2023-02-28T00:46:41;6.78;;;1.50;;
46941;SDS011;32676;52.630;4.896;2023-02-28T00:49:07;5.85;;;1.88;;
46941;SDS011;32676;52.630;4.896;2023-02-28T00:51:34;8.00;;;1.73;;
46941;SDS011;32676;52.630;4.896;2023-02-28T00:54:00;7.03;;;1.05;;
46941;SDS011;32676;52.630;4.896;2023-02-28T00:56:27;6.70;;;2.13;;
46941;SDS011;32676;52.630;4.896;2023-02-28T00:58:53;8.73;;;1.70;;
46941;SDS011;32676;52.630;4.896;2023-02-28T01:01:20;8.52;;;1.90;;
46941;SDS011;32676;52.630;4.896;2023-02-28T01:03:48;9.52;;;1.88;;
46941;SDS011;32676;52.630;4.896;2023-02-28T01:06:14;8.98;;;1.88;;
46941;SDS011;32676;52.630;4.896;2023-02-28T01:08:41;8.77;;;2.90;;
46941;SDS011;32676;52.630;4.896;2023-02-28T01:11:08;12.13;;;3.08;;
46941;SDS011;32676;52.630;4.896;2023-02-28T01:13:35;16.83;;;3.53;;
46941;SDS011;32676;52.630;4.896;2023-02-28T01:16:02;7.45;;;2.00;;
46941;SDS011;32676;52.630;4.896;2023-02-28T01:18:28;6.18;;;1.65;;
46941;SDS011;32676;52.630;4.896;2023-02-28T01:20:57;8.25;;;1.90;;
46941;SDS011;32676;52.630;4.896;2023-02-28T01:23:23;14.88;;;2.30;;
46941;SDS011;32676;52.630;4.896;2023-02-28T01:25:50;10.38;;;1.73;;
46941;SDS011;32676;52.630;4.896;2023-02-28T01:28:17;14.98;;;3.08;;
46941;SDS011;32676;52.630;4.896;2023-02-28T01:30:47;11.68;;;2.95;;
46941;SDS011;32676;52.630;4.896;2023-02-28T01:33:14;13.23;;;1.80;;
46941;SDS011;32676;52.630;4.896;2023-02-28T01:35:40;3.97;;;1.95;;
46941;SDS011;32676;52.630;4.896;2023-02-28T01:38:08;8.45;;;1.95;;
46941;SDS011;32676;52.630;4.896;2023-02-28T01:40:35;5.57;;;1.77;;
46941;SDS011;32676;52.630;4.896;2023-02-28T01:43:01;10.07;;;1.95;;
46941;SDS011;32676;52.630;4.896;2023-02-28T01:45:28;11.55;;;1.83;;
46941;SDS011;32676;52.630;4.896;2023-02-28T01:47:58;10.88;;;2.47;;
46941;SDS011;32676;52.630;4.896;2023-02-28T01:50:29;11.25;;;2.13;;
46941;SDS011;32676;52.630;4.896;2023-02-28T01:52:59;7.18;;;1.45;;
46941;SDS011;32676;52.630;4.896;2023-02-28T01:55:31;4.10;;;1.63;;
46941;SDS011;32676;52.630;4.896;2023-02-28T01:58:00;16.33;;;2.15;;
46941;SDS011;32676;52.630;4.896;2023-02-28T02:00:28;5.55;;;2.00;;
46941;SDS011;32676;52.630;4.896;2023-02-28T02:02:57;12.90;;;2.90;;
46941;SDS011;32676;52.630;4.896;2023-02-28T02:05:26;15.05;;;2.20;;
46941;SDS011;32676;52.630;4.896;2023-02-28T02:07:56;15.00;;;2.53;;
46941;SDS011;32676;52.630;4.896;2023-02-28T02:10:29;6.82;;;1.80;;
46941;SDS011;32676;52.630;4.896;2023-02-28T02:13:05;11.73;;;1.88;;
46941;SDS011;32676;52.630;4.896;2023-02-28T02:15:40;12.65;;;2.15;;
46941;SDS011;32676;52.630;4.896;2023-02-28T02:18:13;13.32;;;3.22;;
46941;SDS011;32676;52.630;4.896;2023-02-28T02:20:51;7.22;;;1.42;;
46941;SDS011;32676;52.630;4.896;2023-02-28T02:23:47;6.80;;;1.52;;
46941;SDS011;32676;52.630;4.896;2023-02-28T02:26:37;9.95;;;1.17;;
46941;SDS011;32676;52.630;4.896;2023-02-28T02:29:31;7.32;;;1.92;;
46941;SDS011;32676;52.630;4.896;2023-02-28T02:32:16;13.68;;;2.72;;
46941;SDS011;32676;52.630;4.896;2023-02-28T02:34:58;11.15;;;2.20;;
46941;SDS011;32676;52.630;4.896;2023-02-28T02:37:33;7.13;;;1.77;;
46941;SDS011;32676;52.630;4.896;2023-02-28T02:40:08;5.82;;;1.30;;
46941;SDS011;32676;52.630;4.896;2023-02-28T02:42:40;7.80;;;1.13;;
46941;SDS011;32676;52.630;4.896;2023-02-28T02:45:12;9.45;;;1.45;;
46941;SDS011;32676;52.630;4.896;2023-02-28T02:47:44;4.50;;;1.10;;
46941;SDS011;32676;52.630;4.896;2023-02-28T02:50:13;11.25;;;1.65;;
46941;SDS011;32676;52.630;4.896;2023-02-28T02:52:46;10.80;;;2.88;;
46941;SDS011;32676;52.630;4.896;2023-02-28T02:55:17;7.45;;;1.55;;
46941;SDS011;32676;52.630;4.896;2023-02-28T02:57:45;10.70;;;2.25;;
46941;SDS011;32676;52.630;4.896;2023-02-28T03:00:15;10.18;;;1.88;;
46941;SDS011;32676;52.630;4.896;2023-02-28T03:02:44;5.55;;;2.10;;
46941;SDS011;32676;52.630;4.896;2023-02-28T03:05:17;7.97;;;2.30;;
46941;SDS011;32676;52.630;4.896;2023-02-28T03:07:45;5.63;;;1.45;;
46941;SDS011;32676;52.630;4.896;2023-02-28T03:10:28;8.18;;;2.08;;
46941;SDS011;32676;52.630;4.896;2023-02-28T03:13:11;7.68;;;2.42;;
46941;SDS011;32676;52.630;4.896;2023-02-28T03:15:52;8.82;;;2.08;;
46941;SDS011;32676;52.630;4.896;2023-02-28T03:18:30;19.63;;;3.42;;
46941;SDS011;32676;52.630;4.896;2023-02-28T03:21:04;9.57;;;3.47;;
46941;SDS011;32676;52.630;4.896;2023-02-28T03:23:42;12.27;;;2.20;;
46941;SDS011;32676;52.630;4.896;2023-02-28T03:26:17;11.30;;;2.60;;
46941;SDS011;32676;52.630;4.896;2023-02-28T03:28:50;7.90;;;2.42;;
46941;SDS011;32676;52.630;4.896;2023-02-28T03:31:23;8.93;;;2.88;;
46941;SDS011;32676;52.630;4.896;2023-02-28T03:33:55;3.92;;;1.40;;
46941;SDS011;32676;52.630;4.896;2023-02-28T03:36:29;12.63;;;2.03;;
46941;SDS011;32676;52.630;4.896;2023-02-28T03:39:02;7.82;;;1.70;;
46941;SDS011;32676;52.630;4.896;2023-02-28T03:41:32;12.45;;;2.05;;
46941;SDS011;32676;52.630;4.896;2023-02-28T03:44:04;10.35;;;2.78;;
46941;SDS011;32676;52.630;4.896;2023-02-28T03:46:35;9.98;;;2.20;;
46941;SDS011;32676;52.630;4.896;2023-02-28T03:49:05;15.95;;;3.20;;
46941;SDS011;32676;52.630;4.896;2023-02-28T03:51:39;12.13;;;3.03;;
46941;SDS011;32676;52.630;4.896;2023-02-28T03:54:09;5.15;;;1.55;;
46941;SDS011;32676;52.630;4.896;2023-02-28T03:56:42;15.57;;;2.28;;
46941;SDS011;32676;52.630;4.896;2023-02-28T03:59:13;5.72;;;1.40;;
46941;SDS011;32676;52.630;4.896;2023-02-28T04:01:45;10.73;;;3.45;;
46941;SDS011;32676;52.630;4.896;2023-02-28T04:04:13;5.78;;;1.80;;
46941;SDS011;32676;52.630;4.896;2023-02-28T04:06:42;10.80;;;2.45;;
46941;SDS011;32676;52.630;4.896;2023-02-28T04:09:10;9.02;;;1.95;;
46941;SDS011;32676;52.630;4.896;2023-02-28T04:11:38;17.17;;;4.18;;
46941;SDS011;32676;52.630;4.896;2023-02-28T04:14:07;7.78;;;2.28;;
46941;SDS011;32676;52.630;4.896;2023-02-28T04:16:35;9.40;;;3.25;;
46941;SDS011;32676;52.630;4.896;2023-02-28T04:19:04;6.80;;;2.50;;
46941;SDS011;32676;52.630;4.896;2023-02-28T04:21:32;8.77;;;1.90;;
46941;SDS011;32676;52.630;4.896;2023-02-28T04:24:01;11.80;;;3.92;;
46941;SDS011;32676;52.630;4.896;2023-02-28T04:26:28;9.88;;;2.80;;
46941;SDS011;32676;52.630;4.896;2023-02-28T04:28:56;16.55;;;2.85;;
46941;SDS011;32676;52.630;4.896;2023-02-28T04:31:22;6.95;;;2.00;;
46941;SDS011;32676;52.630;4.896;2023-02-28T04:33:49;8.05;;;1.40;;
46941;SDS011;32676;52.630;4.896;2023-02-28T04:36:15;11.68;;;3.63;;
46941;SDS011;32676;52.630;4.896;2023-02-28T04:38:43;16.90;;;2.45;;
46941;SDS011;32676;52.630;4.896;2023-02-28T04:41:11;7.18;;;2.25;;
46941;SDS011;32676;52.630;4.896;2023-02-28T04:43:38;4.35;;;1.50;;
46941;SDS011;32676;52.630;4.896;2023-02-28T04:46:05;7.25;;;1.48;;
46941;SDS011;32676;52.630;4.896;2023-02-28T04:48:33;8.85;;;2.60;;
46941;SDS011;32676;52.630;4.896;2023-02-28T04:51:01;15.15;;;2.95;;
46941;SDS011;32676;52.630;4.896;2023-02-28T04:53:29;5.80;;;1.65;;
46941;SDS011;32676;52.630;4.896;2023-02-28T04:55:55;8.18;;;1.70;;
46941;SDS011;32676;52.630;4.896;2023-02-28T04:58:24;7.22;;;1.90;;
46941;SDS011;32676;52.630;4.896;2023-02-28T05:00:51;9.13;;;2.30;;
46941;SDS011;32676;52.630;4.896;2023-02-28T05:03:18;8.80;;;3.03;;
46941;SDS011;32676;52.630;4.896;2023-02-28T05:05:45;7.65;;;2.45;;
46941;SDS011;32676;52.630;4.896;2023-02-28T05:08:12;7.35;;;2.03;;
46941;SDS011;32676;52.630;4.896;2023-02-28T05:10:39;8.20;;;3.13;;
46941;SDS011;32676;52.630;4.896;2023-02-28T05:13:05;10.05;;;2.58;;
46941;SDS011;32676;52.630;4.896;2023-02-28T05:15:34;5.88;;;2.50;;
46941;SDS011;32676;52.630;4.896;2023-02-28T05:18:00;7.68;;;2.40;;
46941;SDS011;32676;52.630;4.896;2023-02-28T05:20:27;7.88;;;2.20;;
46941;SDS011;32676;52.630;4.896;2023-02-28T05:22:53;14.43;;;2.95;;
46941;SDS011;32676;52.630;4.896;2023-02-28T05:25:20;5.18;;;2.00;;
46941;SDS011;32676;52.630;4.896;2023-02-28T05:27:48;14.68;;;4.15;;
46941;SDS011;32676;52.630;4.896;2023-02-28T05:30:15;8.70;;;2.83;;
46941;SDS011;32676;52.630;4.896;2023-02-28T05:32:43;11.60;;;3.00;;
46941;SDS011;32676;52.630;4.896;2023-02-28T05:35:10;6.57;;;1.92;;
46941;SDS011;32676;52.630;4.896;2023-02-28T05:37:37;21.83;;;3.65;;
46941;SDS011;32676;52.630;4.896;2023-02-28T05:40:05;8.63;;;2.20;;
46941;SDS011;32676;52.630;4.896;2023-02-28T05:42:35;9.05;;;2.10;;
46941;SDS011;32676;52.630;4.896;2023-02-28T05:45:01;6.60;;;1.98;;
46941;SDS011;32676;52.630;4.896;2023-02-28T05:47:28;7.75;;;2.17;;
46941;SDS011;32676;52.630;4.896;2023-02-28T05:49:56;11.90;;;3.38;;
46941;SDS011;32676;52.630;4.896;2023-02-28T05:52:22;9.93;;;3.00;;
46941;SDS011;32676;52.630;4.896;2023-02-28T05:54:49;8.75;;;2.72;;
46941;SDS011;32676;52.630;4.896;2023-02-28T05:57:15;12.40;;;2.33;;
46941;SDS011;32676;52.630;4.896;2023-02-28T05:59:42;8.63;;;2.83;;
46941;SDS011;32676;52.630;4.896;2023-02-28T06:02:09;11.45;;;3.22;;
46941;SDS011;32676;52.630;4.896;2023-02-28T06:04:39;13.85;;;3.58;;
46941;SDS011;32676;52.630;4.896;2023-02-28T06:07:07;6.50;;;3.20;;
46941;SDS011;32676;52.630;4.896;2023-02-28T06:09:35;17.33;;;4.68;;
46941;SDS011;32676;52.630;4.896;2023-02-28T06:12:02;8.77;;;3.70;;
46941;SDS011;32676;52.630;4.896;2023-02-28T06:14:30;15.82;;;5.80;;
46941;SDS011;32676;52.630;4.896;2023-02-28T06:16:58;8.43;;;4.28;;
46941;SDS011;32676;52.630;4.896;2023-02-28T06:19:25;10.10;;;3.78;;
46941;SDS011;32676;52.630;4.896;2023-02-28T06:21:52;7.50;;;4.38;;
46941;SDS011;32676;52.630;4.896;2023-02-28T06:24:21;6.72;;;3.45;;
46941;SDS011;32676;52.630;4.896;2023-02-28T06:26:49;11.95;;;4.55;;
46941;SDS011;32676;52.630;4.896;2023-02-28T06:29:16;6.80;;;3.40;;
46941;SDS011;32676;52.630;4.896;2023-02-28T06:31:43;9.02;;;4.38;;
46941;SDS011;32676;52.630;4.896;2023-02-28T06:34:10;12.20;;;4.43;;
46941;SDS011;32676;52.630;4.896;2023-02-28T06:36:37;8.88;;;4.20;;
46941;SDS011;32676;52.630;4.896;2023-02-28T06:39:03;11.38;;;4.88;;
46941;SDS011;32676;52.630;4.896;2023-02-28T06:41:32;8.95;;;4.65;;
46941;SDS011;32676;52.630;4.896;2023-02-28T06:44:03;7.95;;;3.95;;
46941;SDS011;32676;52.630;4.896;2023-02-28T06:46:30;12.27;;;4.63;;
46941;SDS011;32676;52.630;4.896;2023-02-28T06:48:57;12.10;;;5.55;;
46941;SDS011;32676;52.630;4.896;2023-02-28T06:51:24;8.05;;;4.25;;
46941;SDS011;32676;52.630;4.896;2023-02-28T06:53:52;9.57;;;5.38;;
46941;SDS011;32676;52.630;4.896;2023-02-28T06:56:18;13.60;;;4.88;;
46941;SDS011;32676;52.630;4.896;2023-02-28T06:58:47;9.35;;;4.88;;
46941;SDS011;32676;52.630;4.896;2023-02-28T07:01:15;13.32;;;5.22;;
46941;SDS011;32676;52.630;4.896;2023-02-28T07:03:42;13.73;;;5.25;;
46941;SDS011;32676;52.630;4.896;2023-02-28T07:06:09;11.45;;;5.53;;
46941;SDS011;32676;52.630;4.896;2023-02-28T07:08:35;8.48;;;4.55;;
46941;SDS011;32676;52.630;4.896;2023-02-28T07:11:02;10.35;;;5.20;;
46941;SDS011;32676;52.630;4.896;2023-02-28T07:13:30;14.18;;;5.18;;
46941;SDS011;32676;52.630;4.896;2023-02-28T07:15:58;16.67;;;7.90;;
46941;SDS011;32676;52.630;4.896;2023-02-28T07:18:26;18.33;;;9.77;;
46941;SDS011;32676;52.630;4.896;2023-02-28T07:20:53;22.05;;;10.80;;
46941;SDS011;32676;52.630;4.896;2023-02-28T07:23:19;12.30;;;7.28;;
46941;SDS011;32676;52.630;4.896;2023-02-28T07:25:46;12.70;;;5.63;;
46941;SDS011;32676;52.630;4.896;2023-02-28T07:28:13;10.40;;;5.95;;
46941;SDS011;32676;52.630;4.896;2023-02-28T07:30:40;9.60;;;5.45;;
46941;SDS011;32676;52.630;4.896;2023-02-28T07:33:08;10.48;;;5.07;;
46941;SDS011;32676;52.630;4.896;2023-02-28T07:35:34;13.35;;;6.30;;
46941;SDS011;32676;52.630;4.896;2023-02-28T07:38:02;10.75;;;6.55;;
46941;SDS011;32676;52.630;4.896;2023-02-28T07:40:29;11.25;;;6.68;;
46941;SDS011;32676;52.630;4.896;2023-02-28T07:42:58;13.27;;;6.70;;
46941;SDS011;32676;52.630;4.896;2023-02-28T07:45:25;11.40;;;5.93;;
46941;SDS011;32676;52.630;4.896;2023-02-28T07:47:51;9.73;;;5.38;;
46941;SDS011;32676;52.630;4.896;2023-02-28T07:50:20;11.38;;;6.00;;
46941;SDS011;32676;52.630;4.896;2023-02-28T07:52:46;11.15;;;6.88;;
46941;SDS011;32676;52.630;4.896;2023-02-28T07:55:13;13.98;;;7.47;;
46941;SDS011;32676;52.630;4.896;2023-02-28T07:57:41;18.67;;;8.00;;
46941;SDS011;32676;52.630;4.896;2023-02-28T08:00:09;14.45;;;7.55;;
46941;SDS011;32676;52.630;4.896;2023-02-28T08:02:38;13.25;;;7.43;;
46941;SDS011;32676;52.630;4.896;2023-02-28T08:05:05;13.50;;;6.72;;
46941;SDS011;32676;52.630;4.896;2023-02-28T08:07:34;16.83;;;8.45;;
46941;SDS011;32676;52.630;4.896;2023-02-28T08:10:00;11.38;;;5.75;;
46941;SDS011;32676;52.630;4.896;2023-02-28T08:12:27;9.25;;;5.90;;
46941;SDS011;32676;52.630;4.896;2023-02-28T08:14:53;12.02;;;6.25;;
46941;SDS011;32676;52.630;4.896;2023-02-28T08:17:20;7.80;;;4.57;;
46941;SDS011;32676;52.630;4.896;2023-02-28T08:19:46;7.30;;;4.40;;
46941;SDS011;32676;52.630;4.896;2023-02-28T08:22:13;10.18;;;4.45;;
46941;SDS011;32676;52.630;4.896;2023-02-28T08:24:41;9.13;;;4.15;;
46941;SDS011;32676;52.630;4.896;2023-02-28T08:27:08;8.10;;;3.95;;
46941;SDS011;32676;52.630;4.896;2023-02-28T08:29:36;4.13;;;2.63;;
46941;SDS011;32676;52.630;4.896;2023-02-28T08:32:03;7.65;;;3.67;;
46941;SDS011;32676;52.630;4.896;2023-02-28T08:34:30;6.80;;;3.20;;
46941;SDS011;32676;52.630;4.896;2023-02-28T08:36:56;8.30;;;3.42;;
46941;SDS011;32676;52.630;4.896;2023-02-28T08:39:22;8.43;;;3.67;;
46941;SDS011;32676;52.630;4.896;2023-02-28T08:41:50;6.15;;;2.88;;
46941;SDS011;32676;52.630;4.896;2023-02-28T08:44:17;6.25;;;3.45;;
46941;SDS011;32676;52.630;4.896;2023-02-28T08:46:43;9.57;;;4.40;;
46941;SDS011;32676;52.630;4.896;2023-02-28T08:49:10;10.02;;;3.78;;
46941;SDS011;32676;52.630;4.896;2023-02-28T08:51:36;7.63;;;3.67;;
46941;SDS011;32676;52.630;4.896;2023-02-28T08:54:04;5.55;;;2.33;;
46941;SDS011;32676;52.630;4.896;2023-02-28T08:56:31;7.05;;;3.13;;
46941;SDS011;32676;52.630;4.896;2023-02-28T08:58:59;3.63;;;2.05;;
46941;SDS011;32676;52.630;4.896;2023-02-28T09:01:26;4.50;;;2.35;;
46941;SDS011;32676;52.630;4.896;2023-02-28T09:03:54;5.15;;;2.60;;
46941;SDS011;32676;52.630;4.896;2023-02-28T09:06:22;6.88;;;2.45;;
46941;SDS011;32676;52.630;4.896;2023-02-28T09:08:50;9.45;;;2.45;;
46941;SDS011;32676;52.630;4.896;2023-02-28T09:11:17;4.00;;;2.10;;
46941;SDS011;32676;52.630;4.896;2023-02-28T09:13:44;5.13;;;2.25;;
46941;SDS011;32676;52.630;4.896;2023-02-28T09:16:13;5.65;;;1.95;;
46941;SDS011;32676;52.630;4.896;2023-02-28T09:18:42;4.43;;;2.38;;
46941;SDS011;32676;52.630;4.896;2023-02-28T09:21:09;6.93;;;3.20;;
46941;SDS011;32676;52.630;4.896;2023-02-28T09:23:39;8.95;;;3.22;;
46941;SDS011;32676;52.630;4.896;2023-02-28T09:26:06;5.43;;;2.35;;
46941;SDS011;32676;52.630;4.896;2023-02-28T09:28:33;5.40;;;2.92;;
46941;SDS011;32676;52.630;4.896;2023-02-28T09:30:59;6.25;;;2.67;;
46941;SDS011;32676;52.630;4.896;2023-02-28T09:33:28;6.05;;;2.97;;
46941;SDS011;32676;52.630;4.896;2023-02-28T09:35:58;5.05;;;2.40;;
46941;SDS011;32676;52.630;4.896;2023-02-28T09:38:27;8.75;;;4.57;;
46941;SDS011;32676;52.630;4.896;2023-02-28T09:40:54;6.38;;;3.00;;
46941;SDS011;32676;52.630;4.896;2023-02-28T09:43:23;8.38;;;3.42;;
46941;SDS011;32676;52.630;4.896;2023-02-28T09:45:54;6.05;;;2.67;;
46941;SDS011;32676;52.630;4.896;2023-02-28T09:48:27;9.27;;;3.40;;
46941;SDS011;32676;52.630;4.896;2023-02-28T09:51:00;5.95;;;3.17;;
46941;SDS011;32676;52.630;4.896;2023-02-28T09:53:30;8.75;;;3.38;;
46941;SDS011;32676;52.630;4.896;2023-02-28T09:55:59;6.97;;;3.40;;
46941;SDS011;32676;52.630;4.896;2023-02-28T09:58:31;5.28;;;3.20;;
46941;SDS011;32676;52.630;4.896;2023-02-28T10:01:03;6.30;;;3.08;;
46941;SDS011;32676;52.630;4.896;2023-02-28T10:03:36;5.43;;;3.15;;
46941;SDS011;32676;52.630;4.896;2023-02-28T10:06:07;6.85;;;3.38;;
46941;SDS011;32676;52.630;4.896;2023-02-28T10:08:39;5.93;;;2.80;;
46941;SDS011;32676;52.630;4.896;2023-02-28T10:11:18;5.53;;;2.67;;
46941;SDS011;32676;52.630;4.896;2023-02-28T10:13:52;4.28;;;2.25;;
46941;SDS011;32676;52.630;4.896;2023-02-28T10:16:27;6.80;;;2.65;;
46941;SDS011;32676;52.630;4.896;2023-02-28T10:18:59;11.27;;;2.72;;
46941;SDS011;32676;52.630;4.896;2023-02-28T10:21:30;10.60;;;3.55;;
46941;SDS011;32676;52.630;4.896;2023-02-28T10:24:02;6.80;;;3.40;;
46941;SDS011;32676;52.630;4.896;2023-02-28T10:26:36;4.15;;;2.63;;
46941;SDS011;32676;52.630;4.896;2023-02-28T10:29:03;5.57;;;2.85;;
46941;SDS011;32676;52.630;4.896;2023-02-28T10:31:30;8.10;;;3.22;;
46941;SDS011;32676;52.630;4.896;2023-02-28T10:33:56;5.45;;;3.13;;
46941;SDS011;32676;52.630;4.896;2023-02-28T10:36:24;5.75;;;2.38;;
46941;SDS011;32676;52.630;4.896;2023-02-28T10:38:51;4.95;;;2.65;;
46941;SDS011;32676;52.630;4.896;2023-02-28T10:41:26;5.18;;;2.42;;
46941;SDS011;32676;52.630;4.896;2023-02-28T10:44:11;7.15;;;2.45;;
46941;SDS011;32676;52.630;4.896;2023-02-28T10:46:40;6.75;;;2.30;;
46941;SDS011;32676;52.630;4.896;2023-02-28T10:49:12;7.22;;;2.40;;
46941;SDS011;32676;52.630;4.896;2023-02-28T10:51:44;6.88;;;2.05;;
46941;SDS011;32676;52.630;4.896;2023-02-28T10:54:16;2.65;;;1.33;;
46941;SDS011;32676;52.630;4.896;2023-02-28T10:56:45;3.40;;;1.55;;
46941;SDS011;32676;52.630;4.896;2023-02-28T10:59:32;6.50;;;2.00;;
46941;SDS011;32676;52.630;4.896;2023-02-28T11:01:58;3.10;;;1.67;;
46941;SDS011;32676;52.630;4.896;2023-02-28T11:04:35;2.47;;;1.40;;
46941;SDS011;32676;52.630;4.896;2023-02-28T11:07:12;3.92;;;1.17;;
46941;SDS011;32676;52.630;4.896;2023-02-28T11:09:44;5.70;;;1.20;;
46941;SDS011;32676;52.630;4.896;2023-02-28T11:12:19;7.07;;;2.10;;
46941;SDS011;32676;52.630;4.896;2023-02-28T11:14:48;6.13;;;2.33;;
46941;SDS011;32676;52.630;4.896;2023-02-28T11:17:19;5.85;;;1.83;;
46941;SDS011;32676;52.630;4.896;2023-02-28T11:19:49;4.30;;;1.73;;
46941;SDS011;32676;52.630;4.896;2023-02-28T11:22:20;5.72;;;1.90;;
46941;SDS011;32676;52.630;4.896;2023-02-28T11:24:50;8.85;;;2.90;;
46941;SDS011;32676;52.630;4.896;2023-02-28T11:27:25;6.07;;;2.63;;
46941;SDS011;32676;52.630;4.896;2023-02-28T11:30:23;5.07;;;1.98;;
46941;SDS011;32676;52.630;4.896;2023-02-28T11:32:54;10.00;;;2.05;;
46941;SDS011;32676;52.630;4.896;2023-02-28T11:35:23;7.18;;;1.90;;
46941;SDS011;32676;52.630;4.896;2023-02-28T11:37:53;5.25;;;2.00;;
46941;SDS011;32676;52.630;4.896;2023-02-28T11:40:24;2.80;;;1.45;;
46941;SDS011;32676;52.630;4.896;2023-02-28T11:43:01;6.95;;;2.10;;
46941;SDS011;32676;52.630;4.896;2023-02-28T11:45:42;4.28;;;1.63;;
46941;SDS011;32676;52.630;4.896;2023-02-28T11:48:15;4.07;;;2.08;;
46941;SDS011;32676;52.630;4.896;2023-02-28T11:51:00;4.85;;;1.08;;
46941;SDS011;32676;52.630;4.896;2023-02-28T11:56:30;9.25;;;2.25;;
46941;SDS011;32676;52.630;4.896;2023-02-28T12:04:48;6.90;;;1.58;;
46941;SDS011;32676;52.630;4.896;2023-02-28T12:07:28;7.53;;;1.55;;
46941;SDS011;32676;52.630;4.896;2023-02-28T12:10:06;3.00;;;1.10;;
46941;SDS011;32676;52.630;4.896;2023-02-28T12:12:46;5.13;;;1.13;;
46941;SDS011;32676;52.630;4.896;2023-02-28T12:15:32;2.22;;;1.02;;
46941;SDS011;32676;52.630;4.896;2023-02-28T12:18:14;2.63;;;1.08;;
46941;SDS011;32676;52.630;4.896;2023-02-28T12:20:51;4.05;;;1.00;;
46941;SDS011;32676;52.630;4.896;2023-02-28T12:23:35;4.30;;;1.15;;
46941;SDS011;32676;52.630;4.896;2023-02-28T12:26:16;2.97;;;1.15;;
46941;SDS011;32676;52.630;4.896;2023-02-28T12:28:49;4.05;;;1.15;;
46941;SDS011;32676;52.630;4.896;2023-02-28T12:31:19;3.92;;;1.17;;
46941;SDS011;32676;52.630;4.896;2023-02-28T12:33:51;2.33;;;1.10;;
46941;SDS011;32676;52.630;4.896;2023-02-28T12:36:22;5.88;;;1.33;;
46941;SDS011;32676;52.630;4.896;2023-02-28T12:38:52;5.80;;;1.27;;
46941;SDS011;32676;52.630;4.896;2023-02-28T12:41:25;4.47;;;1.27;;
46941;SDS011;32676;52.630;4.896;2023-02-28T12:43:56;2.05;;;1.20;;
46941;SDS011;32676;52.630;4.896;2023-02-28T12:46:29;2.85;;;1.05;;
46941;SDS011;32676;52.630;4.896;2023-02-28T12:49:04;4.20;;;1.08;;
46941;SDS011;32676;52.630;4.896;2023-02-28T12:51:32;3.17;;;0.70;;
46941;SDS011;32676;52.630;4.896;2023-02-28T12:54:04;6.75;;;2.90;;
46941;SDS011;32676;52.630;4.896;2023-02-28T12:56:42;2.30;;;1.02;;
46941;SDS011;32676;52.630;4.896;2023-02-28T12:59:14;12.90;;;5.88;;
46941;SDS011;32676;52.630;4.896;2023-02-28T13:01:52;3.28;;;0.90;;
46941;SDS011;32676;52.630;4.896;2023-02-28T13:04:41;12.55;;;4.07;;
46941;SDS011;32676;52.630;4.896;2023-02-28T13:10:39;4.05;;;0.80;;
46941;SDS011;32676;52.630;4.896;2023-02-28T13:13:11;5.38;;;0.60;;
46941;SDS011;32676;52.630;4.896;2023-02-28T13:15:41;1.77;;;0.65;;
46941;SDS011;32676;52.630;4.896;2023-02-28T13:18:27;2.15;;;0.80;;
46941;SDS011;32676;52.630;4.896;2023-02-28T13:20:57;1.48;;;0.47;;
46941;SDS011;32676;52.630;4.896;2023-02-28T13:23:36;2.92;;;0.75;;
46941;SDS011;32676;52.630;4.896;2023-02-28T13:26:05;14.00;;;4.93;;
46941;SDS011;32676;52.630;4.896;2023-02-28T13:28:58;4.13;;;1.65;;
46941;SDS011;32676;52.630;4.896;2023-02-28T13:36:41;9.85;;;4.30;;
46941;SDS011;32676;52.630;4.896;2023-02-28T13:42:22;1.98;;;0.50;;
46941;SDS011;32676;52.630;4.896;2023-02-28T13:47:54;5.45;;;1.65;;
46941;SDS011;32676;52.630;4.896;2023-02-28T13:50:27;4.63;;;0.60;;
46941;SDS011;32676;52.630;4.896;2023-02-28T13:53:01;3.70;;;1.20;;
46941;SDS011;32676;52.630;4.896;2023-02-28T13:55:48;1.85;;;0.50;;
46941;SDS011;32676;52.630;4.896;2023-02-28T13:58:26;2.20;;;0.90;;
46941;SDS011;32676;52.630;4.896;2023-02-28T14:01:18;11.50;;;2.08;;
46941;SDS011;32676;52.630;4.896;2023-02-28T14:04:06;2.40;;;0.90;;
46941;SDS011;32676;52.630;4.896;2023-02-28T14:06:46;8.98;;;2.85;;
46941;SDS011;32676;52.630;4.896;2023-02-28T14:09:17;5.47;;;1.52;;
46941;SDS011;32676;52.630;4.896;2023-02-28T14:11:48;1.25;;;0.60;;
46941;SDS011;32676;52.630;4.896;2023-02-28T14:17:16;6.10;;;2.00;;
46941;SDS011;32676;52.630;4.896;2023-02-28T14:19:43;6.90;;;1.05;;
46941;SDS011;32676;52.630;4.896;2023-02-28T14:22:16;3.03;;;0.85;;
46941;SDS011;32676;52.630;4.896;2023-02-28T14:25:06;8.38;;;3.55;;
46941;SDS011;32676;52.630;4.896;2023-02-28T14:27:38;8.65;;;3.55;;
46941;SDS011;32676;52.630;4.896;2023-02-28T14:32:58;1.83;;;0.70;;
46941;SDS011;32676;52.630;4.896;2023-02-28T14:35:40;3.60;;;1.00;;
46941;SDS011;32676;52.630;4.896;2023-02-28T14:38:17;2.50;;;0.70;;
46941;SDS011;32676;52.630;4.896;2023-02-28T14:40:46;2.97;;;1.17;;
46941;SDS011;32676;52.630;4.896;2023-02-28T14:43:19;4.05;;;1.33;;
46941;SDS011;32676;52.630;4.896;2023-02-28T14:45:49;4.55;;;0.98;;
46941;SDS011;32676;52.630;4.896;2023-02-28T14:48:19;2.47;;;1.13;;
46941;SDS011;32676;52.630;4.896;2023-02-28T14:50:48;4.70;;;1.17;;
46941;SDS011;32676;52.630;4.896;2023-02-28T14:53:18;3.70;;;1.80;;
46941;SDS011;32676;52.630;4.896;2023-02-28T14:55:47;2.67;;;0.90;;
46941;SDS011;32676;52.630;4.896;2023-02-28T14:58:20;4.72;;;1.52;;
46941;SDS011;32676;52.630;4.896;2023-02-28T15:00:49;4.20;;;1.00;;
46941;SDS011;32676;52.630;4.896;2023-02-28T15:03:19;3.05;;;1.33;;
46941;SDS011;32676;52.630;4.896;2023-02-28T15:05:51;3.53;;;1.27;;
46941;SDS011;32676;52.630;4.896;2023-02-28T15:08:18;4.43;;;1.60;;
46941;SDS011;32676;52.630;4.896;2023-02-28T15:10:49;4.95;;;1.38;;
46941;SDS011;32676;52.630;4.896;2023-02-28T15:13:19;2.38;;;0.85;;
46941;SDS011;32676;52.630;4.896;2023-02-28T15:15:47;2.25;;;0.90;;
46941;SDS011;32676;52.630;4.896;2023-02-28T15:18:25;5.18;;;2.85;;
46941;SDS011;32676;52.630;4.896;2023-02-28T15:20:57;4.70;;;1.42;;
46941;SDS011;32676;52.630;4.896;2023-02-28T15:23:32;5.93;;;1.50;;
46941;SDS011;32676;52.630;4.896;2023-02-28T15:26:02;3.15;;;1.60;;
46941;SDS011;32676;52.630;4.896;2023-02-28T15:28:29;1.83;;;0.82;;
46941;SDS011;32676;52.630;4.896;2023-02-28T15:30:57;3.97;;;1.13;;